sensor_id;sensor_type;location;lat;lon;timestamp;temperature;humidity
23124;DHT22;11731;48.592;8.858;2023-08-06T00:01:33;16.70;99.90
23124;DHT22;11731;48.592;8.858;2023-08-06T00:04:00;16.70;99.90
23124;DHT22;11731;48.592;8.858;2023-08-06T00:06:27;16.70;99.90
23124;DHT22;11731;48.592;8.858;2023-08-06T00:08:55;16.80;99.90
23124;DHT22;11731;48.592;8.858;2023-08-06T00:11:22;16.90;99.90
23124;DHT22;11731;48.592;8.858;2023-08-06T00:13:49;16.80;99.90
23124;DHT22;11731;48.592;8.858;2023-08-06T00:16:16;16.80;99.90
23124;DHT22;11731;48.592;8.858;2023-08-06T00:18:43;16.70;99.90
23124;DHT22;11731;48.592;8.858;2023-08-06T00:21:10;16.80;99.90
23124;DHT22;11731;48.592;8.858;2023-08-06T00:23:38;16.40;99.90
23124;DHT22;11731;48.592;8.858;2023-08-06T00:26:06;16.40;99.90
23124;DHT22;11731;48.592;8.858;2023-08-06T00:28:33;16.40;99.90
23124;DHT22;11731;48.592;8.858;2023-08-06T00:31:00;16.50;99.90
23124;DHT22;11731;48.592;8.858;2023-08-06T00:33:27;16.60;99.90
23124;DHT22;11731;48.592;8.858;2023-08-06T00:35:54;16.50;99.90
23124;DHT22;11731;48.592;8.858;2023-08-06T00:38:21;16.50;99.90
23124;DHT22;11731;48.592;8.858;2023-08-06T00:40:47;16.30;99.90
23124;DHT22;11731;48.592;8.858;2023-08-06T00:43:16;16.20;99.90
23124;DHT22;11731;48.592;8.858;2023-08-06T00:45:43;16.20;99.90
23124;DHT22;11731;48.592;8.858;2023-08-06T00:48:10;16.30;99.90
23124;DHT22;11731;48.592;8.858;2023-08-06T00:50:37;16.30;99.90
23124;DHT22;11731;48.592;8.858;2023-08-06T00:53:04;16.20;99.90
23124;DHT22;11731;48.592;8.858;2023-08-06T00:55:31;16.10;99.90
23124;DHT22;11731;48.592;8.858;2023-08-06T00:57:58;16.20;99.90
23124;DHT22;11731;48.592;8.858;2023-08-06T01:00:26;16.20;99.90
23124;DHT22;11731;48.592;8.858;2023-08-06T01:02:53;16.30;99.90
23124;DHT22;11731;48.592;8.858;2023-08-06T01:05:20;16.20;99.90
23124;DHT22;11731;48.592;8.858;2023-08-06T01:07:57;16.10;99.90
23124;DHT22;11731;48.592;8.858;2023-08-06T01:10:37;16.10;99.90
23124;DHT22;11731;48.592;8.858;2023-08-06T01:13:11;16.10;99.90
23124;DHT22;11731;48.592;8.858;2023-08-06T01:15:46;16.00;99.90
23124;DHT22;11731;48.592;8.858;2023-08-06T01:18:13;16.00;99.90
23124;DHT22;11731;48.592;8.858;2023-08-06T01:20:41;15.80;99.90
23124;DHT22;11731;48.592;8.858;2023-08-06T01:23:08;15.80;99.90
23124;DHT22;11731;48.592;8.858;2023-08-06T01:25:40;15.90;99.90
23124;DHT22;11731;48.592;8.858;2023-08-06T01:28:17;15.90;99.90
23124;DHT22;11731;48.592;8.858;2023-08-06T01:30:46;15.80;99.90
23124;DHT22;11731;48.592;8.858;2023-08-06T01:33:16;15.80;99.90
23124;DHT22;11731;48.592;8.858;2023-08-06T01:35:48;15.70;99.90
23124;DHT22;11731;48.592;8.858;2023-08-06T01:38:16;15.50;99.90
23124;DHT22;11731;48.592;8.858;2023-08-06T01:40:43;15.50;99.90
23124;DHT22;11731;48.592;8.858;2023-08-06T01:43:10;15.40;99.90
23124;DHT22;11731;48.592;8.858;2023-08-06T01:45:36;15.10;99.90
23124;DHT22;11731;48.592;8.858;2023-08-06T01:48:04;15.20;99.90
23124;DHT22;11731;48.592;8.858;2023-08-06T01:50:30;15.30;99.90
23124;DHT22;11731;48.592;8.858;2023-08-06T01:52:59;15.30;99.90
23124;DHT22;11731;48.592;8.858;2023-08-06T01:55:25;15.30;99.90
23124;DHT22;11731;48.592;8.858;2023-08-06T01:57:52;15.10;99.90
23124;DHT22;11731;48.592;8.858;2023-08-06T02:00:19;15.00;99.90
23124;DHT22;11731;48.592;8.858;2023-08-06T02:02:46;15.30;99.90
23124;DHT22;11731;48.592;8.858;2023-08-06T02:05:13;15.10;99.90
23124;DHT22;11731;48.592;8.858;2023-08-06T02:07:39;15.00;99.90
23124;DHT22;11731;48.592;8.858;2023-08-06T02:10:08;15.20;99.90
23124;DHT22;11731;48.592;8.858;2023-08-06T02:12:35;15.30;99.90
23124;DHT22;11731;48.592;8.858;2023-08-06T02:15:02;15.30;99.90
23124;DHT22;11731;48.592;8.858;2023-08-06T02:17:29;15.10;99.90
23124;DHT22;11731;48.592;8.858;2023-08-06T02:19:56;14.90;99.90
23124;DHT22;11731;48.592;8.858;2023-08-06T02:22:23;14.60;99.90
23124;DHT22;11731;48.592;8.858;2023-08-06T02:24:50;14.70;99.90
23124;DHT22;11731;48.592;8.858;2023-08-06T02:27:18;14.90;99.90
23124;DHT22;11731;48.592;8.858;2023-08-06T02:29:45;14.70;99.90
23124;DHT22;11731;48.592;8.858;2023-08-06T02:32:12;14.80;99.90
23124;DHT22;11731;48.592;8.858;2023-08-06T02:34:39;15.00;99.90
23124;DHT22;11731;48.592;8.858;2023-08-06T02:37:05;15.20;99.90
23124;DHT22;11731;48.592;8.858;2023-08-06T02:39:32;15.10;99.90
23124;DHT22;11731;48.592;8.858;2023-08-06T02:42:01;14.70;99.90
23124;DHT22;11731;48.592;8.858;2023-08-06T02:44:29;14.70;99.90
23124;DHT22;11731;48.592;8.858;2023-08-06T02:46:56;14.90;99.90
23124;DHT22;11731;48.592;8.858;2023-08-06T02:49:23;15.00;99.90
23124;DHT22;11731;48.592;8.858;2023-08-06T02:51:50;14.90;99.90
23124;DHT22;11731;48.592;8.858;2023-08-06T02:54:17;15.20;99.90
23124;DHT22;11731;48.592;8.858;2023-08-06T02:56:44;15.50;99.90
23124;DHT22;11731;48.592;8.858;2023-08-06T02:59:12;15.60;99.90
23124;DHT22;11731;48.592;8.858;2023-08-06T03:01:40;15.60;99.90
23124;DHT22;11731;48.592;8.858;2023-08-06T03:04:07;15.70;99.90
23124;DHT22;11731;48.592;8.858;2023-08-06T03:06:34;15.80;99.90
23124;DHT22;11731;48.592;8.858;2023-08-06T03:09:00;15.90;99.90
23124;DHT22;11731;48.592;8.858;2023-08-06T03:11:27;16.00;99.90
23124;DHT22;11731;48.592;8.858;2023-08-06T03:13:54;16.00;99.90
23124;DHT22;11731;48.592;8.858;2023-08-06T03:16:21;16.10;99.90
23124;DHT22;11731;48.592;8.858;2023-08-06T03:18:49;16.10;99.90
23124;DHT22;11731;48.592;8.858;2023-08-06T03:21:16;16.20;99.90
23124;DHT22;11731;48.592;8.858;2023-08-06T03:23:43;16.20;99.90
23124;DHT22;11731;48.592;8.858;2023-08-06T03:26:09;15.50;99.90
23124;DHT22;11731;48.592;8.858;2023-08-06T03:28:36;15.00;99.90
23124;DHT22;11731;48.592;8.858;2023-08-06T03:31:03;14.70;99.90
23124;DHT22;11731;48.592;8.858;2023-08-06T03:33:31;14.70;99.90
23124;DHT22;11731;48.592;8.858;2023-08-06T03:35:59;14.80;99.90
23124;DHT22;11731;48.592;8.858;2023-08-06T03:38:26;15.00;99.90
23124;DHT22;11731;48.592;8.858;2023-08-06T03:40:53;15.20;99.90
23124;DHT22;11731;48.592;8.858;2023-08-06T03:43:20;15.10;99.90
23124;DHT22;11731;48.592;8.858;2023-08-06T03:45:46;14.80;99.90
23124;DHT22;11731;48.592;8.858;2023-08-06T03:48:13;14.60;99.90
23124;DHT22;11731;48.592;8.858;2023-08-06T03:50:40;14.30;99.90
23124;DHT22;11731;48.592;8.858;2023-08-06T03:53:08;14.40;99.90
23124;DHT22;11731;48.592;8.858;2023-08-06T03:55:35;14.60;99.90
23124;DHT22;11731;48.592;8.858;2023-08-06T03:58:02;14.80;99.90
23124;DHT22;11731;48.592;8.858;2023-08-06T04:00:29;14.90;99.90
23124;DHT22;11731;48.592;8.858;2023-08-06T04:02:56;14.90;99.90
23124;DHT22;11731;48.592;8.858;2023-08-06T04:05:22;15.10;99.90
23124;DHT22;11731;48.592;8.858;2023-08-06T04:07:49;15.20;99.90
23124;DHT22;11731;48.592;8.858;2023-08-06T04:10:18;14.90;99.90
23124;DHT22;11731;48.592;8.858;2023-08-06T04:12:45;15.00;99.90
23124;DHT22;11731;48.592;8.858;2023-08-06T04:15:11;14.90;99.90
23124;DHT22;11731;48.592;8.858;2023-08-06T04:17:38;15.30;99.90
23124;DHT22;11731;48.592;8.858;2023-08-06T04:20:06;15.40;99.90
23124;DHT22;11731;48.592;8.858;2023-08-06T04:22:33;15.10;99.90
23124;DHT22;11731;48.592;8.858;2023-08-06T04:25:00;14.90;99.90
23124;DHT22;11731;48.592;8.858;2023-08-06T04:27:29;14.50;99.90
23124;DHT22;11731;48.592;8.858;2023-08-06T04:29:56;14.20;99.90
23124;DHT22;11731;48.592;8.858;2023-08-06T04:32:23;14.10;99.90
23124;DHT22;11731;48.592;8.858;2023-08-06T04:34:51;14.00;99.90
23124;DHT22;11731;48.592;8.858;2023-08-06T04:37:17;14.00;99.90
23124;DHT22;11731;48.592;8.858;2023-08-06T04:39:44;14.10;99.90
23124;DHT22;11731;48.592;8.858;2023-08-06T04:42:11;14.10;99.90
23124;DHT22;11731;48.592;8.858;2023-08-06T04:44:39;14.30;99.90
23124;DHT22;11731;48.592;8.858;2023-08-06T04:47:06;14.60;99.90
23124;DHT22;11731;48.592;8.858;2023-08-06T04:49:33;14.40;99.90
23124;DHT22;11731;48.592;8.858;2023-08-06T04:52:00;14.40;99.90
23124;DHT22;11731;48.592;8.858;2023-08-06T04:54:27;14.50;99.90
23124;DHT22;11731;48.592;8.858;2023-08-06T04:56:53;14.60;99.90
23124;DHT22;11731;48.592;8.858;2023-08-06T04:59:20;14.50;99.90
23124;DHT22;11731;48.592;8.858;2023-08-06T05:01:48;14.70;99.90
23124;DHT22;11731;48.592;8.858;2023-08-06T05:04:15;14.70;99.90
23124;DHT22;11731;48.592;8.858;2023-08-06T05:06:42;14.90;99.90
23124;DHT22;11731;48.592;8.858;2023-08-06T05:09:09;15.00;99.90
23124;DHT22;11731;48.592;8.858;2023-08-06T05:11:36;15.10;99.90
23124;DHT22;11731;48.592;8.858;2023-08-06T05:14:02;15.40;99.90
23124;DHT22;11731;48.592;8.858;2023-08-06T05:16:29;15.70;99.90
23124;DHT22;11731;48.592;8.858;2023-08-06T05:18:57;15.80;99.90
23124;DHT22;11731;48.592;8.858;2023-08-06T05:21:24;16.40;99.90
23124;DHT22;11731;48.592;8.858;2023-08-06T05:23:51;16.50;99.90
23124;DHT22;11731;48.592;8.858;2023-08-06T05:26:18;16.30;99.90
23124;DHT22;11731;48.592;8.858;2023-08-06T05:28:45;15.70;99.90
23124;DHT22;11731;48.592;8.858;2023-08-06T05:31:12;15.70;99.90
23124;DHT22;11731;48.592;8.858;2023-08-06T05:33:39;16.00;99.90
23124;DHT22;11731;48.592;8.858;2023-08-06T05:36:07;16.10;99.90
23124;DHT22;11731;48.592;8.858;2023-08-06T05:38:34;16.10;99.90
23124;DHT22;11731;48.592;8.858;2023-08-06T05:41:01;16.10;99.90
23124;DHT22;11731;48.592;8.858;2023-08-06T05:43:28;15.90;99.90
23124;DHT22;11731;48.592;8.858;2023-08-06T05:45:56;15.70;99.90
23124;DHT22;11731;48.592;8.858;2023-08-06T05:48:23;15.80;99.90
23124;DHT22;11731;48.592;8.858;2023-08-06T05:50:50;15.60;99.90
23124;DHT22;11731;48.592;8.858;2023-08-06T05:53:18;15.70;99.90
23124;DHT22;11731;48.592;8.858;2023-08-06T05:55:45;15.80;99.90
23124;DHT22;11731;48.592;8.858;2023-08-06T05:58:12;15.70;99.90
23124;DHT22;11731;48.592;8.858;2023-08-06T06:00:39;15.80;99.90
23124;DHT22;11731;48.592;8.858;2023-08-06T06:03:06;16.10;99.90
23124;DHT22;11731;48.592;8.858;2023-08-06T06:05:32;16.40;99.90
23124;DHT22;11731;48.592;8.858;2023-08-06T06:07:59;16.60;99.90
23124;DHT22;11731;48.592;8.858;2023-08-06T06:10:27;16.70;99.90
23124;DHT22;11731;48.592;8.858;2023-08-06T06:12:54;16.40;99.90
23124;DHT22;11731;48.592;8.858;2023-08-06T06:15:21;16.40;99.90
23124;DHT22;11731;48.592;8.858;2023-08-06T06:17:48;16.40;99.90
23124;DHT22;11731;48.592;8.858;2023-08-06T06:20:15;16.50;99.90
23124;DHT22;11731;48.592;8.858;2023-08-06T06:22:41;16.30;99.90
23124;DHT22;11731;48.592;8.858;2023-08-06T06:25:08;16.10;99.90
23124;DHT22;11731;48.592;8.858;2023-08-06T06:27:37;16.10;99.90
23124;DHT22;11731;48.592;8.858;2023-08-06T06:30:05;16.00;99.90
23124;DHT22;11731;48.592;8.858;2023-08-06T06:32:32;15.90;99.90
23124;DHT22;11731;48.592;8.858;2023-08-06T06:34:59;15.80;99.90
23124;DHT22;11731;48.592;8.858;2023-08-06T06:37:26;15.80;99.90
23124;DHT22;11731;48.592;8.858;2023-08-06T06:39:53;15.90;99.90
23124;DHT22;11731;48.592;8.858;2023-08-06T06:42:20;16.30;99.90
23124;DHT22;11731;48.592;8.858;2023-08-06T06:44:49;16.30;99.90
23124;DHT22;11731;48.592;8.858;2023-08-06T06:47:16;16.20;99.90
23124;DHT22;11731;48.592;8.858;2023-08-06T06:49:43;16.00;99.90
23124;DHT22;11731;48.592;8.858;2023-08-06T06:52:10;15.90;99.90
23124;DHT22;11731;48.592;8.858;2023-08-06T06:54:37;16.00;99.90
23124;DHT22;11731;48.592;8.858;2023-08-06T06:57:05;15.90;99.90
23124;DHT22;11731;48.592;8.858;2023-08-06T06:59:32;15.60;99.90
23124;DHT22;11731;48.592;8.858;2023-08-06T07:02:00;15.50;99.90
23124;DHT22;11731;48.592;8.858;2023-08-06T07:04:27;15.40;99.90
23124;DHT22;11731;48.592;8.858;2023-08-06T07:06:53;15.20;99.90
23124;DHT22;11731;48.592;8.858;2023-08-06T07:09:20;15.30;99.90
23124;DHT22;11731;48.592;8.858;2023-08-06T07:11:47;15.40;99.90
23124;DHT22;11731;48.592;8.858;2023-08-06T07:14:14;15.60;99.90
23124;DHT22;11731;48.592;8.858;2023-08-06T07:16:41;15.50;99.90
23124;DHT22;11731;48.592;8.858;2023-08-06T07:19:09;15.40;99.90
23124;DHT22;11731;48.592;8.858;2023-08-06T07:21:36;15.20;99.90
23124;DHT22;11731;48.592;8.858;2023-08-06T07:24:03;15.10;99.90
23124;DHT22;11731;48.592;8.858;2023-08-06T07:26:30;15.10;99.90
23124;DHT22;11731;48.592;8.858;2023-08-06T07:28:57;15.30;99.90
23124;DHT22;11731;48.592;8.858;2023-08-06T07:31:23;15.30;99.90
23124;DHT22;11731;48.592;8.858;2023-08-06T07:33:51;15.40;99.90
23124;DHT22;11731;48.592;8.858;2023-08-06T07:36:19;15.80;99.90
23124;DHT22;11731;48.592;8.858;2023-08-06T07:38:46;15.50;99.90
23124;DHT22;11731;48.592;8.858;2023-08-06T07:41:14;15.30;99.90
23124;DHT22;11731;48.592;8.858;2023-08-06T07:43:41;15.40;99.90
23124;DHT22;11731;48.592;8.858;2023-08-06T07:46:08;15.60;99.90
23124;DHT22;11731;48.592;8.858;2023-08-06T07:48:35;15.60;99.90
23124;DHT22;11731;48.592;8.858;2023-08-06T07:51:01;15.90;99.90
23124;DHT22;11731;48.592;8.858;2023-08-06T07:53:30;15.80;99.90
23124;DHT22;11731;48.592;8.858;2023-08-06T07:55:57;15.70;99.90
23124;DHT22;11731;48.592;8.858;2023-08-06T07:58:24;15.80;99.90
23124;DHT22;11731;48.592;8.858;2023-08-06T08:00:51;15.80;99.90
23124;DHT22;11731;48.592;8.858;2023-08-06T08:03:18;15.90;99.90
23124;DHT22;11731;48.592;8.858;2023-08-06T08:05:46;15.60;99.90
23124;DHT22;11731;48.592;8.858;2023-08-06T08:08:13;15.50;99.90
23124;DHT22;11731;48.592;8.858;2023-08-06T08:10:42;15.50;99.90
23124;DHT22;11731;48.592;8.858;2023-08-06T08:13:08;15.50;99.90
23124;DHT22;11731;48.592;8.858;2023-08-06T08:15:35;15.30;99.90
23124;DHT22;11731;48.592;8.858;2023-08-06T08:18:02;15.20;99.90
23124;DHT22;11731;48.592;8.858;2023-08-06T08:20:29;15.20;99.90
23124;DHT22;11731;48.592;8.858;2023-08-06T08:22:58;15.30;99.90
23124;DHT22;11731;48.592;8.858;2023-08-06T08:25:26;15.30;99.90
23124;DHT22;11731;48.592;8.858;2023-08-06T08:27:54;15.30;99.90
23124;DHT22;11731;48.592;8.858;2023-08-06T08:30:22;15.30;99.90
23124;DHT22;11731;48.592;8.858;2023-08-06T08:32:50;15.40;99.90
23124;DHT22;11731;48.592;8.858;2023-08-06T08:35:17;15.20;99.90
23124;DHT22;11731;48.592;8.858;2023-08-06T08:37:44;15.20;99.90
23124;DHT22;11731;48.592;8.858;2023-08-06T08:40:11;15.20;99.90
23124;DHT22;11731;48.592;8.858;2023-08-06T08:42:38;15.30;99.90
23124;DHT22;11731;48.592;8.858;2023-08-06T08:45:11;15.30;99.90
23124;DHT22;11731;48.592;8.858;2023-08-06T08:47:40;15.10;99.90
23124;DHT22;11731;48.592;8.858;2023-08-06T08:50:08;15.10;99.90
23124;DHT22;11731;48.592;8.858;2023-08-06T08:52:36;15.40;99.90
23124;DHT22;11731;48.592;8.858;2023-08-06T08:55:05;15.90;99.90
23124;DHT22;11731;48.592;8.858;2023-08-06T08:57:33;15.90;99.90
23124;DHT22;11731;48.592;8.858;2023-08-06T09:00:00;15.80;99.90
23124;DHT22;11731;48.592;8.858;2023-08-06T09:02:28;16.10;99.90
23124;DHT22;11731;48.592;8.858;2023-08-06T09:04:57;16.10;99.90
23124;DHT22;11731;48.592;8.858;2023-08-06T09:07:27;16.30;99.90
23124;DHT22;11731;48.592;8.858;2023-08-06T09:09:56;16.50;99.90
23124;DHT22;11731;48.592;8.858;2023-08-06T09:12:24;16.60;99.90
23124;DHT22;11731;48.592;8.858;2023-08-06T09:14:52;16.50;99.90
23124;DHT22;11731;48.592;8.858;2023-08-06T09:17:19;17.00;99.90
23124;DHT22;11731;48.592;8.858;2023-08-06T09:19:48;17.10;99.90
23124;DHT22;11731;48.592;8.858;2023-08-06T09:22:15;16.90;99.90
23124;DHT22;11731;48.592;8.858;2023-08-06T09:24:45;16.80;99.90
23124;DHT22;11731;48.592;8.858;2023-08-06T09:27:12;16.50;99.90
23124;DHT22;11731;48.592;8.858;2023-08-06T09:29:43;16.50;99.90
23124;DHT22;11731;48.592;8.858;2023-08-06T09:32:11;16.30;99.90
23124;DHT22;11731;48.592;8.858;2023-08-06T09:34:39;16.20;99.90
23124;DHT22;11731;48.592;8.858;2023-08-06T09:37:09;16.20;99.90
23124;DHT22;11731;48.592;8.858;2023-08-06T09:39:37;16.20;99.90
23124;DHT22;11731;48.592;8.858;2023-08-06T09:42:04;16.00;99.90
23124;DHT22;11731;48.592;8.858;2023-08-06T09:44:32;15.80;99.90
23124;DHT22;11731;48.592;8.858;2023-08-06T09:47:00;15.60;99.90
23124;DHT22;11731;48.592;8.858;2023-08-06T09:49:40;15.20;99.90
23124;DHT22;11731;48.592;8.858;2023-08-06T09:52:11;15.30;99.90
23124;DHT22;11731;48.592;8.858;2023-08-06T09:54:38;15.30;99.90
23124;DHT22;11731;48.592;8.858;2023-08-06T09:57:05;15.20;99.90
23124;DHT22;11731;48.592;8.858;2023-08-06T09:59:32;15.10;99.90
23124;DHT22;11731;48.592;8.858;2023-08-06T10:02:00;15.20;99.90
23124;DHT22;11731;48.592;8.858;2023-08-06T10:04:29;15.40;99.90
23124;DHT22;11731;48.592;8.858;2023-08-06T10:06:56;15.60;99.90
23124;DHT22;11731;48.592;8.858;2023-08-06T10:09:26;15.90;99.90
23124;DHT22;11731;48.592;8.858;2023-08-06T10:11:53;16.10;99.90
23124;DHT22;11731;48.592;8.858;2023-08-06T10:14:25;16.10;99.90
23124;DHT22;11731;48.592;8.858;2023-08-06T10:16:54;15.70;99.90
23124;DHT22;11731;48.592;8.858;2023-08-06T10:19:22;16.10;99.90
23124;DHT22;11731;48.592;8.858;2023-08-06T10:22:09;16.40;99.90
23124;DHT22;11731;48.592;8.858;2023-08-06T10:24:48;16.30;99.90
23124;DHT22;11731;48.592;8.858;2023-08-06T10:27:20;16.00;99.90
23124;DHT22;11731;48.592;8.858;2023-08-06T10:29:47;15.60;99.90
23124;DHT22;11731;48.592;8.858;2023-08-06T10:32:15;15.60;99.90
23124;DHT22;11731;48.592;8.858;2023-08-06T10:34:56;15.70;99.90
23124;DHT22;11731;48.592;8.858;2023-08-06T10:37:24;15.80;99.90
23124;DHT22;11731;48.592;8.858;2023-08-06T10:39:52;15.80;99.90
23124;DHT22;11731;48.592;8.858;2023-08-06T10:42:21;16.10;99.90
23124;DHT22;11731;48.592;8.858;2023-08-06T10:45:13;16.30;99.90
23124;DHT22;11731;48.592;8.858;2023-08-06T10:47:41;16.30;99.90
23124;DHT22;11731;48.592;8.858;2023-08-06T10:50:12;16.20;99.90
23124;DHT22;11731;48.592;8.858;2023-08-06T10:52:39;16.30;99.90
23124;DHT22;11731;48.592;8.858;2023-08-06T10:55:08;16.10;99.90
23124;DHT22;11731;48.592;8.858;2023-08-06T10:57:35;16.20;99.90
23124;DHT22;11731;48.592;8.858;2023-08-06T11:00:05;16.20;99.90
23124;DHT22;11731;48.592;8.858;2023-08-06T11:02:33;16.10;99.90
23124;DHT22;11731;48.592;8.858;2023-08-06T11:05:05;16.10;99.90
23124;DHT22;11731;48.592;8.858;2023-08-06T11:07:32;16.20;99.90
23124;DHT22;11731;48.592;8.858;2023-08-06T11:10:02;16.40;99.90
23124;DHT22;11731;48.592;8.858;2023-08-06T11:12:30;16.60;99.90
23124;DHT22;11731;48.592;8.858;2023-08-06T11:14:59;16.60;99.90
23124;DHT22;11731;48.592;8.858;2023-08-06T11:17:28;16.50;99.90
23124;DHT22;11731;48.592;8.858;2023-08-06T11:19:55;16.30;99.90
23124;DHT22;11731;48.592;8.858;2023-08-06T11:22:22;16.20;99.90
23124;DHT22;11731;48.592;8.858;2023-08-06T11:24:49;16.20;99.90
23124;DHT22;11731;48.592;8.858;2023-08-06T11:27:16;16.40;99.90
23124;DHT22;11731;48.592;8.858;2023-08-06T11:29:45;16.40;99.90
23124;DHT22;11731;48.592;8.858;2023-08-06T11:32:12;16.40;99.90
23124;DHT22;11731;48.592;8.858;2023-08-06T11:34:39;16.20;99.90
23124;DHT22;11731;48.592;8.858;2023-08-06T11:37:07;16.10;99.90
23124;DHT22;11731;48.592;8.858;2023-08-06T11:39:34;16.10;99.90
23124;DHT22;11731;48.592;8.858;2023-08-06T11:42:03;16.20;99.90
23124;DHT22;11731;48.592;8.858;2023-08-06T11:44:31;16.30;99.90
23124;DHT22;11731;48.592;8.858;2023-08-06T11:47:01;16.40;99.90
23124;DHT22;11731;48.592;8.858;2023-08-06T11:49:39;16.50;99.90
23124;DHT22;11731;48.592;8.858;2023-08-06T11:52:15;16.50;99.90
23124;DHT22;11731;48.592;8.858;2023-08-06T11:54:44;16.50;99.90
23124;DHT22;11731;48.592;8.858;2023-08-06T11:57:11;16.30;99.90
23124;DHT22;11731;48.592;8.858;2023-08-06T11:59:39;16.10;99.90
23124;DHT22;11731;48.592;8.858;2023-08-06T12:02:09;15.70;99.90
23124;DHT22;11731;48.592;8.858;2023-08-06T12:05:01;15.40;99.90
23124;DHT22;11731;48.592;8.858;2023-08-06T12:07:30;15.40;99.90
23124;DHT22;11731;48.592;8.858;2023-08-06T12:09:57;15.70;99.90
23124;DHT22;11731;48.592;8.858;2023-08-06T12:12:24;15.70;99.90
23124;DHT22;11731;48.592;8.858;2023-08-06T12:14:51;15.70;99.90
23124;DHT22;11731;48.592;8.858;2023-08-06T12:17:19;15.80;99.90
23124;DHT22;11731;48.592;8.858;2023-08-06T12:19:46;15.70;99.90
23124;DHT22;11731;48.592;8.858;2023-08-06T12:22:14;15.70;99.90
23124;DHT22;11731;48.592;8.858;2023-08-06T12:24:41;16.00;99.90
23124;DHT22;11731;48.592;8.858;2023-08-06T12:27:08;16.20;99.90
23124;DHT22;11731;48.592;8.858;2023-08-06T12:29:35;16.40;99.90
23124;DHT22;11731;48.592;8.858;2023-08-06T12:32:02;16.40;99.90
23124;DHT22;11731;48.592;8.858;2023-08-06T12:34:31;16.20;99.90
23124;DHT22;11731;48.592;8.858;2023-08-06T12:36:58;16.10;99.90
23124;DHT22;11731;48.592;8.858;2023-08-06T12:39:24;16.00;99.90
23124;DHT22;11731;48.592;8.858;2023-08-06T12:41:54;16.00;99.90
23124;DHT22;11731;48.592;8.858;2023-08-06T12:44:22;16.10;99.90
23124;DHT22;11731;48.592;8.858;2023-08-06T12:46:49;16.10;99.90
23124;DHT22;11731;48.592;8.858;2023-08-06T12:49:16;16.20;99.90
23124;DHT22;11731;48.592;8.858;2023-08-06T12:51:44;15.90;99.90
23124;DHT22;11731;48.592;8.858;2023-08-06T12:54:12;16.00;99.90
23124;DHT22;11731;48.592;8.858;2023-08-06T12:56:39;16.40;99.90
23124;DHT22;11731;48.592;8.858;2023-08-06T12:59:06;16.70;99.90
23124;DHT22;11731;48.592;8.858;2023-08-06T13:01:33;17.10;99.90
23124;DHT22;11731;48.592;8.858;2023-08-06T13:04:00;17.20;99.90
23124;DHT22;11731;48.592;8.858;2023-08-06T13:06:26;17.20;99.90
23124;DHT22;11731;48.592;8.858;2023-08-06T13:08:55;17.60;99.90
23124;DHT22;11731;48.592;8.858;2023-08-06T13:11:21;18.10;99.90
23124;DHT22;11731;48.592;8.858;2023-08-06T13:13:48;18.20;99.90
23124;DHT22;11731;48.592;8.858;2023-08-06T13:16:15;18.20;99.90
23124;DHT22;11731;48.592;8.858;2023-08-06T13:18:42;17.80;99.90
23124;DHT22;11731;48.592;8.858;2023-08-06T13:21:09;17.70;99.90
23124;DHT22;11731;48.592;8.858;2023-08-06T13:23:36;17.60;99.90
23124;DHT22;11731;48.592;8.858;2023-08-06T13:26:04;17.30;99.90
23124;DHT22;11731;48.592;8.858;2023-08-06T13:28:31;17.30;99.90
23124;DHT22;11731;48.592;8.858;2023-08-06T13:30:58;17.10;99.90
23124;DHT22;11731;48.592;8.858;2023-08-06T13:33:25;17.10;99.90
23124;DHT22;11731;48.592;8.858;2023-08-06T13:35:52;17.30;99.90
23124;DHT22;11731;48.592;8.858;2023-08-06T13:38:19;17.10;99.90
23124;DHT22;11731;48.592;8.858;2023-08-06T13:40:46;16.60;99.90
23124;DHT22;11731;48.592;8.858;2023-08-06T13:43:14;16.80;99.90
23124;DHT22;11731;48.592;8.858;2023-08-06T13:45:42;17.20;99.90
23124;DHT22;11731;48.592;8.858;2023-08-06T13:48:09;17.10;99.90
23124;DHT22;11731;48.592;8.858;2023-08-06T13:50:36;17.30;99.90
23124;DHT22;11731;48.592;8.858;2023-08-06T13:53:03;17.70;99.90
23124;DHT22;11731;48.592;8.858;2023-08-06T13:55:30;17.50;99.90
23124;DHT22;11731;48.592;8.858;2023-08-06T13:57:57;17.30;99.90
23124;DHT22;11731;48.592;8.858;2023-08-06T14:00:25;17.40;99.90
23124;DHT22;11731;48.592;8.858;2023-08-06T14:02:55;17.10;99.90
23124;DHT22;11731;48.592;8.858;2023-08-06T14:05:24;17.20;99.90
23124;DHT22;11731;48.592;8.858;2023-08-06T14:07:51;17.30;99.90
23124;DHT22;11731;48.592;8.858;2023-08-06T14:10:18;17.20;99.90
23124;DHT22;11731;48.592;8.858;2023-08-06T14:12:45;17.30;99.90
23124;DHT22;11731;48.592;8.858;2023-08-06T14:15:12;17.40;99.90
23124;DHT22;11731;48.592;8.858;2023-08-06T14:17:40;17.30;99.90
23124;DHT22;11731;48.592;8.858;2023-08-06T14:20:07;17.30;99.90
23124;DHT22;11731;48.592;8.858;2023-08-06T14:22:37;17.20;99.90
23124;DHT22;11731;48.592;8.858;2023-08-06T14:25:05;17.20;99.90
23124;DHT22;11731;48.592;8.858;2023-08-06T14:27:32;16.90;99.90
23124;DHT22;11731;48.592;8.858;2023-08-06T14:29:58;16.20;99.90
23124;DHT22;11731;48.592;8.858;2023-08-06T14:32:26;15.60;99.90
23124;DHT22;11731;48.592;8.858;2023-08-06T14:34:54;15.30;99.90
23124;DHT22;11731;48.592;8.858;2023-08-06T14:37:21;15.20;99.90
23124;DHT22;11731;48.592;8.858;2023-08-06T14:39:47;14.90;99.90
23124;DHT22;11731;48.592;8.858;2023-08-06T14:42:14;15.10;99.90
23124;DHT22;11731;48.592;8.858;2023-08-06T14:44:41;15.30;99.90
23124;DHT22;11731;48.592;8.858;2023-08-06T14:47:08;15.20;99.90
23124;DHT22;11731;48.592;8.858;2023-08-06T14:49:35;15.20;99.90
23124;DHT22;11731;48.592;8.858;2023-08-06T14:52:05;15.60;99.90
23124;DHT22;11731;48.592;8.858;2023-08-06T14:54:32;16.00;99.90
23124;DHT22;11731;48.592;8.858;2023-08-06T14:56:59;15.80;99.90
23124;DHT22;11731;48.592;8.858;2023-08-06T14:59:26;15.50;99.90
23124;DHT22;11731;48.592;8.858;2023-08-06T15:01:52;15.70;99.90
23124;DHT22;11731;48.592;8.858;2023-08-06T15:04:19;15.90;99.90
23124;DHT22;11731;48.592;8.858;2023-08-06T15:06:48;16.10;99.90
23124;DHT22;11731;48.592;8.858;2023-08-06T15:09:16;16.40;99.90
23124;DHT22;11731;48.592;8.858;2023-08-06T15:11:43;16.70;99.90
23124;DHT22;11731;48.592;8.858;2023-08-06T15:14:10;16.30;99.90
23124;DHT22;11731;48.592;8.858;2023-08-06T15:16:37;16.20;99.90
23124;DHT22;11731;48.592;8.858;2023-08-06T15:19:03;16.00;99.90
23124;DHT22;11731;48.592;8.858;2023-08-06T15:21:30;16.00;99.90
23124;DHT22;11731;48.592;8.858;2023-08-06T15:23:57;16.10;99.90
23124;DHT22;11731;48.592;8.858;2023-08-06T15:26:27;16.10;99.90
23124;DHT22;11731;48.592;8.858;2023-08-06T15:28:54;16.10;99.90
23124;DHT22;11731;48.592;8.858;2023-08-06T15:31:22;16.40;99.90
23124;DHT22;11731;48.592;8.858;2023-08-06T15:33:49;16.70;99.90